AFL273 VTBS-UUEE
Flight info
| Callsign | AFL273 |
|---|---|
| Flight time | N/A |
| Altitude | 34000 |
| Route | NUNLI1G NUNLI L507 CEA R460 GGC L509 SULOM/N0489F360 L509 TAPIS M875 AMDAR/K0904F360 M875 MILSO M161 GERLI/K0900F380 M161 DENUD T784 LARNO T291 URIDU L158 DIMGI DIMGI3W |
| Aircraft | B77W/H-SDE1E2E3FGHIJ2J3J4J5M1RWXY/LB1D1 |
Departure
| Time | N/A |
|---|---|
| Airport | Suvarnabhumi Airport (VTBS) |
Arrival
| Time | 2026-05-04 17:38 |
|---|---|
| Airport | Sheremetyevo International Airport (UUEE) |
| Time | Latitude | Longitude | Altitude | Speed | Heading |
|---|---|---|---|---|---|
| 2026-05-04 13:21 | 35.37297 | 68.59193 | 36090 ft | 444 kts | 329° |
| 2026-05-04 13:22 | 35.40022 | 68.57396 | 36093 ft | 444 kts | 329° |
| 2026-05-04 13:22 | 35.45464 | 68.53808 | 36086 ft | 443 kts | 329° |
| 2026-05-04 13:23 | 35.50884 | 68.50228 | 36089 ft | 442 kts | 329° |
| 2026-05-04 13:23 | 35.56298 | 68.46645 | 36074 ft | 442 kts | 329° |
| 2026-05-04 13:24 | 35.61707 | 68.43051 | 36061 ft | 441 kts | 329° |
| 2026-05-04 13:24 | 35.67109 | 68.39434 | 36078 ft | 444 kts | 329° |
| 2026-05-04 13:25 | 35.75290 | 68.33915 | 36047 ft | 447 kts | 329° |
| 2026-05-04 13:25 | 35.80658 | 68.30309 | 36055 ft | 440 kts | 329° |
| 2026-05-04 13:26 | 35.86054 | 68.26691 | 36063 ft | 444 kts | 329° |
| 2026-05-04 13:26 | 35.91500 | 68.23020 | 36063 ft | 447 kts | 329° |
| 2026-05-04 13:27 | 35.96959 | 68.19330 | 36062 ft | 447 kts | 329° |
| 2026-05-04 13:27 | 36.02421 | 68.15636 | 36051 ft | 446 kts | 329° |
| 2026-05-04 13:28 | 36.07849 | 68.11960 | 36032 ft | 444 kts | 329° |
| 2026-05-04 13:28 | 36.13236 | 68.08306 | 36041 ft | 443 kts | 329° |
| 2026-05-04 13:29 | 36.18648 | 68.04629 | 36037 ft | 442 kts | 329° |
| 2026-05-04 13:29 | 36.24047 | 68.00958 | 36021 ft | 442 kts | 329° |
| 2026-05-04 13:30 | 36.29442 | 67.97280 | 36011 ft | 442 kts | 329° |
| 2026-05-04 13:30 | 36.34807 | 67.93617 | 36016 ft | 442 kts | 329° |
| 2026-05-04 13:31 | 36.40199 | 67.89932 | 35993 ft | 443 kts | 329° |
| 2026-05-04 13:31 | 36.45591 | 67.86240 | 35986 ft | 442 kts | 329° |
| 2026-05-04 13:32 | 36.50977 | 67.82547 | 35979 ft | 442 kts | 329° |
| 2026-05-04 13:32 | 36.56364 | 67.78848 | 35993 ft | 442 kts | 329° |
| 2026-05-04 13:33 | 36.61756 | 67.75138 | 35985 ft | 443 kts | 329° |
| 2026-05-04 13:33 | 36.67150 | 67.71431 | 35987 ft | 443 kts | 329° |
| 2026-05-04 13:34 | 36.72544 | 67.67707 | 35975 ft | 443 kts | 329° |
| 2026-05-04 13:34 | 36.77926 | 67.63991 | 35971 ft | 442 kts | 329° |
| 2026-05-04 13:35 | 36.85987 | 67.58430 | 35957 ft | 442 kts | 329° |
| 2026-05-04 13:36 | 36.91375 | 67.54709 | 35958 ft | 442 kts | 329° |
| 2026-05-04 13:36 | 36.96760 | 67.50985 | 35957 ft | 443 kts | 329° |
| 2026-05-04 13:37 | 37.02158 | 67.47245 | 35949 ft | 443 kts | 329° |
| 2026-05-04 13:37 | 37.07529 | 67.43519 | 35949 ft | 444 kts | 329° |
| 2026-05-04 13:38 | 37.12940 | 67.39761 | 35963 ft | 445 kts | 329° |
| 2026-05-04 13:38 | 37.18361 | 67.35991 | 35954 ft | 445 kts | 329° |
| 2026-05-04 13:39 | 37.23755 | 67.32151 | 35950 ft | 445 kts | 327° |
| 2026-05-04 13:39 | 37.29025 | 67.28092 | 35938 ft | 444 kts | 326° |
| 2026-05-04 13:40 | 37.34274 | 67.24017 | 35951 ft | 444 kts | 327° |
| 2026-05-04 13:40 | 37.39518 | 67.19984 | 35928 ft | 444 kts | 326° |
| 2026-05-04 13:41 | 37.44799 | 67.15935 | 35942 ft | 444 kts | 326° |
| 2026-05-04 13:41 | 37.50079 | 67.11884 | 35950 ft | 445 kts | 326° |
| 2026-05-04 13:42 | 37.58022 | 67.05779 | 35959 ft | 446 kts | 327° |
| 2026-05-04 13:42 | 37.63324 | 67.01694 | 35970 ft | 446 kts | 327° |
| 2026-05-04 13:43 | 37.68622 | 66.97606 | 35973 ft | 446 kts | 326° |
| 2026-05-04 13:43 | 37.73917 | 66.93513 | 35985 ft | 447 kts | 327° |
| 2026-05-04 13:44 | 37.79191 | 66.89429 | 35991 ft | 446 kts | 327° |
| 2026-05-04 13:44 | 37.84487 | 66.85324 | 35995 ft | 446 kts | 326° |
| 2026-05-04 13:45 | 37.89778 | 66.81214 | 36018 ft | 446 kts | 326° |
| 2026-05-04 13:45 | 37.95074 | 66.77098 | 36027 ft | 447 kts | 326° |
| 2026-05-04 13:46 | 38.00379 | 66.72963 | 36024 ft | 448 kts | 326° |
| 2026-05-04 13:46 | 38.05682 | 66.68782 | 36016 ft | 449 kts | 326° |
| 2026-05-04 13:47 | 38.10931 | 66.64590 | 36031 ft | 449 kts | 326° |
| 2026-05-04 13:47 | 38.16214 | 66.60373 | 36013 ft | 448 kts | 326° |
| 2026-05-04 13:48 | 38.21498 | 66.56156 | 35995 ft | 448 kts | 326° |
| 2026-05-04 13:48 | 38.26779 | 66.51938 | 36021 ft | 449 kts | 326° |
| 2026-05-04 13:49 | 38.32078 | 66.47698 | 36001 ft | 450 kts | 326° |
| 2026-05-04 13:49 | 38.37378 | 66.43451 | 35995 ft | 450 kts | 326° |
| 2026-05-04 13:50 | 38.42664 | 66.39207 | 35995 ft | 451 kts | 326° |
| 2026-05-04 13:50 | 38.47978 | 66.34933 | 35985 ft | 451 kts | 326° |
| 2026-05-04 13:51 | 38.53288 | 66.30659 | 35976 ft | 451 kts | 326° |
| 2026-05-04 13:51 | 38.58595 | 66.26381 | 35975 ft | 450 kts | 326° |
| 2026-05-04 13:52 | 38.66524 | 66.20018 | 35962 ft | 450 kts | 326° |
| 2026-05-04 13:53 | 38.71858 | 66.15810 | 35965 ft | 451 kts | 326° |
| 2026-05-04 13:53 | 38.77200 | 66.11595 | 35961 ft | 451 kts | 326° |
| 2026-05-04 13:54 | 38.85221 | 66.05241 | 35966 ft | 452 kts | 326° |
| 2026-05-04 13:55 | 38.93263 | 65.98849 | 35962 ft | 453 kts | 326° |
| 2026-05-04 13:55 | 39.01308 | 65.92436 | 35954 ft | 453 kts | 326° |
| 2026-05-04 13:56 | 39.06633 | 65.88182 | 35957 ft | 453 kts | 326° |
| 2026-05-04 13:57 | 39.14671 | 65.81746 | 35957 ft | 454 kts | 326° |
| 2026-05-04 13:58 | 39.25410 | 65.73120 | 35959 ft | 454 kts | 326° |
| 2026-05-04 13:58 | 39.33462 | 65.66632 | 35959 ft | 454 kts | 326° |
| 2026-05-04 13:59 | 39.37920 | 65.63032 | 35961 ft | 454 kts | 326° |
| 2026-05-04 14:00 | 39.46835 | 65.55816 | 35963 ft | 455 kts | 326° |
| 2026-05-04 14:00 | 39.53984 | 65.50015 | 35978 ft | 455 kts | 326° |
| 2026-05-04 14:01 | 39.59355 | 65.45645 | 35959 ft | 456 kts | 326° |
| 2026-05-04 14:02 | 39.67427 | 65.39065 | 35962 ft | 456 kts | 326° |
| 2026-05-04 14:02 | 39.72811 | 65.34665 | 35969 ft | 457 kts | 326° |
| 2026-05-04 14:03 | 39.78188 | 65.30263 | 35967 ft | 457 kts | 326° |
| 2026-05-04 14:03 | 39.83533 | 65.25879 | 35968 ft | 457 kts | 325° |
| 2026-05-04 14:04 | 39.91602 | 65.19245 | 35967 ft | 457 kts | 325° |
| 2026-05-04 14:04 | 39.96981 | 65.14813 | 35966 ft | 457 kts | 325° |
| 2026-05-04 14:05 | 40.05050 | 65.08148 | 35971 ft | 458 kts | 325° |
| 2026-05-04 14:06 | 40.10432 | 65.03692 | 35966 ft | 458 kts | 325° |
| 2026-05-04 14:06 | 40.15814 | 64.99227 | 35968 ft | 458 kts | 325° |
| 2026-05-04 14:07 | 40.21192 | 64.94757 | 35962 ft | 458 kts | 325° |
| 2026-05-04 14:07 | 40.26564 | 64.90283 | 35970 ft | 458 kts | 325° |
| 2026-05-04 14:08 | 40.31951 | 64.85789 | 35967 ft | 458 kts | 325° |
| 2026-05-04 14:08 | 40.37299 | 64.81319 | 35967 ft | 458 kts | 325° |
| 2026-05-04 14:09 | 40.45361 | 64.74563 | 35966 ft | 458 kts | 325° |
| 2026-05-04 14:10 | 40.53430 | 64.67783 | 35965 ft | 458 kts | 325° |
| 2026-05-04 14:10 | 40.58770 | 64.63285 | 35976 ft | 459 kts | 325° |
| 2026-05-04 14:11 | 40.64149 | 64.58745 | 35965 ft | 459 kts | 325° |
| 2026-05-04 14:11 | 40.72204 | 64.51931 | 35970 ft | 459 kts | 325° |
| 2026-05-04 14:12 | 40.77577 | 64.47374 | 35964 ft | 459 kts | 325° |
| 2026-05-04 14:13 | 40.85649 | 64.40512 | 35961 ft | 459 kts | 325° |
| 2026-05-04 14:13 | 40.90995 | 64.35956 | 35970 ft | 460 kts | 325° |
| 2026-05-04 14:14 | 40.96375 | 64.31363 | 35964 ft | 460 kts | 325° |
| 2026-05-04 14:14 | 41.04447 | 64.24454 | 35975 ft | 460 kts | 325° |
| 2026-05-04 14:15 | 41.15221 | 64.15202 | 35970 ft | 461 kts | 324° |
| 2026-05-04 14:16 | 41.23269 | 64.08268 | 35978 ft | 462 kts | 324° |
| 2026-05-04 14:17 | 41.31359 | 64.01281 | 35972 ft | 462 kts | 324° |
| 2026-05-04 14:18 | 41.39459 | 63.94263 | 35976 ft | 463 kts | 324° |
| 2026-05-04 14:19 | 41.50207 | 63.84890 | 35970 ft | 463 kts | 324° |
| 2026-05-04 14:19 | 41.55596 | 63.80185 | 35974 ft | 463 kts | 324° |
| 2026-05-04 14:20 | 41.60997 | 63.75463 | 35964 ft | 464 kts | 324° |
| 2026-05-04 14:20 | 41.66403 | 63.70728 | 35970 ft | 464 kts | 324° |
| 2026-05-04 14:21 | 41.74485 | 63.63631 | 35969 ft | 464 kts | 324° |
| 2026-05-04 14:21 | 41.79889 | 63.58873 | 35959 ft | 464 kts | 324° |
| 2026-05-04 14:22 | 41.85297 | 63.54101 | 35962 ft | 464 kts | 324° |
| 2026-05-04 14:22 | 41.90702 | 63.49323 | 35965 ft | 465 kts | 324° |
| 2026-05-04 14:23 | 41.98801 | 63.42145 | 35970 ft | 465 kts | 324° |
| 2026-05-04 14:24 | 42.04197 | 63.37350 | 35960 ft | 465 kts | 324° |
| 2026-05-04 14:24 | 42.09562 | 63.32573 | 35959 ft | 465 kts | 324° |
| 2026-05-04 14:25 | 42.14954 | 63.27763 | 35957 ft | 465 kts | 324° |
| 2026-05-04 14:25 | 42.23054 | 63.20519 | 35962 ft | 465 kts | 324° |
| 2026-05-04 14:26 | 42.28415 | 63.15713 | 35964 ft | 465 kts | 324° |
| 2026-05-04 14:26 | 42.33814 | 63.10867 | 35962 ft | 466 kts | 324° |
| 2026-05-04 14:27 | 42.39214 | 63.06007 | 35961 ft | 466 kts | 324° |
| 2026-05-04 14:27 | 42.44607 | 63.01130 | 35960 ft | 466 kts | 323° |
| 2026-05-04 14:28 | 42.49994 | 62.96246 | 35967 ft | 466 kts | 324° |
| 2026-05-04 14:28 | 42.55390 | 62.91352 | 35966 ft | 467 kts | 324° |
| 2026-05-04 14:29 | 42.66188 | 62.81539 | 35961 ft | 467 kts | 323° |
| 2026-05-04 14:30 | 42.71547 | 62.76653 | 35961 ft | 466 kts | 323° |
| 2026-05-04 14:31 | 42.79625 | 62.69269 | 35966 ft | 466 kts | 323° |
| 2026-05-04 14:32 | 42.90397 | 62.59384 | 35955 ft | 467 kts | 323° |
| 2026-05-04 14:32 | 42.95788 | 62.54422 | 35963 ft | 467 kts | 323° |
| 2026-05-04 14:33 | 43.01175 | 62.49452 | 35954 ft | 468 kts | 323° |
| 2026-05-04 14:33 | 43.06541 | 62.44492 | 35953 ft | 468 kts | 323° |
| 2026-05-04 14:34 | 43.11935 | 62.39495 | 35965 ft | 469 kts | 323° |
| 2026-05-04 14:34 | 43.17341 | 62.34477 | 35961 ft | 469 kts | 323° |
| 2026-05-04 14:35 | 43.22747 | 62.29448 | 35961 ft | 470 kts | 323° |
| 2026-05-04 14:35 | 43.28163 | 62.24400 | 35963 ft | 470 kts | 323° |
| 2026-05-04 14:36 | 43.33576 | 62.19344 | 35963 ft | 470 kts | 323° |
| 2026-05-04 14:36 | 43.38989 | 62.14282 | 35948 ft | 471 kts | 323° |
| 2026-05-04 14:37 | 43.44370 | 62.09243 | 35959 ft | 471 kts | 324° |
| 2026-05-04 14:37 | 43.50153 | 62.04934 | 35974 ft | 474 kts | 332° |
| 2026-05-04 14:38 | 43.56167 | 62.01108 | 35958 ft | 475 kts | 332° |
| 2026-05-04 14:38 | 43.62168 | 61.97280 | 35956 ft | 476 kts | 332° |
| 2026-05-04 14:39 | 43.68168 | 61.93406 | 35955 ft | 476 kts | 332° |
| 2026-05-04 14:39 | 43.74164 | 61.89509 | 35957 ft | 476 kts | 332° |
| 2026-05-04 14:40 | 43.83120 | 61.83671 | 35962 ft | 476 kts | 332° |
| 2026-05-04 14:40 | 43.89128 | 61.79745 | 35961 ft | 476 kts | 332° |
| 2026-05-04 14:41 | 43.95125 | 61.75820 | 35956 ft | 476 kts | 332° |
| 2026-05-04 14:42 | 44.07107 | 61.67953 | 35962 ft | 476 kts | 332° |
| 2026-05-04 14:42 | 44.13046 | 61.64043 | 35962 ft | 475 kts | 331° |
| 2026-05-04 14:43 | 44.19027 | 61.60089 | 35966 ft | 476 kts | 331° |
| 2026-05-04 14:43 | 44.25004 | 61.56127 | 35957 ft | 476 kts | 331° |
| 2026-05-04 14:44 | 44.30994 | 61.52156 | 35963 ft | 476 kts | 331° |
| 2026-05-04 14:44 | 44.36978 | 61.48186 | 35966 ft | 476 kts | 331° |
| 2026-05-04 14:45 | 44.42983 | 61.44194 | 35962 ft | 477 kts | 331° |
| 2026-05-04 14:45 | 44.48946 | 61.40220 | 35961 ft | 477 kts | 331° |
| 2026-05-04 14:46 | 44.53954 | 61.36876 | 35965 ft | 477 kts | 331° |
| 2026-05-04 14:46 | 44.60916 | 61.32214 | 35953 ft | 478 kts | 331° |
| 2026-05-04 14:47 | 44.66925 | 61.28183 | 35963 ft | 478 kts | 331° |
| 2026-05-04 14:47 | 44.71920 | 61.24824 | 35964 ft | 478 kts | 332° |
| 2026-05-04 14:48 | 44.77921 | 61.20781 | 35962 ft | 479 kts | 332° |
| 2026-05-04 14:48 | 44.83934 | 61.16720 | 35960 ft | 479 kts | 331° |
| 2026-05-04 14:49 | 44.89950 | 61.12647 | 35966 ft | 480 kts | 331° |
| 2026-05-04 14:49 | 44.95973 | 61.08560 | 35963 ft | 480 kts | 331° |
| 2026-05-04 14:50 | 45.01965 | 61.04485 | 35965 ft | 481 kts | 331° |
| 2026-05-04 14:50 | 45.07993 | 61.00377 | 35961 ft | 481 kts | 331° |
| 2026-05-04 14:51 | 45.14026 | 60.96255 | 35965 ft | 482 kts | 331° |
| 2026-05-04 14:51 | 45.20080 | 60.92111 | 35957 ft | 482 kts | 331° |
| 2026-05-04 14:52 | 45.26121 | 60.87967 | 35974 ft | 482 kts | 331° |
| 2026-05-04 14:52 | 45.32169 | 60.83812 | 35965 ft | 483 kts | 331° |
| 2026-05-04 14:53 | 45.38166 | 60.79676 | 35958 ft | 483 kts | 330° |
| 2026-05-04 14:53 | 45.43873 | 60.74717 | 35959 ft | 478 kts | 320° |
| 2026-05-04 14:54 | 45.48879 | 60.68513 | 35957 ft | 476 kts | 314° |
| 2026-05-04 14:54 | 45.53756 | 60.62136 | 35961 ft | 476 kts | 314° |
| 2026-05-04 14:55 | 45.58656 | 60.55774 | 35968 ft | 476 kts | 315° |
| 2026-05-04 14:55 | 45.63578 | 60.49425 | 35963 ft | 476 kts | 315° |
| 2026-05-04 14:56 | 45.68469 | 60.43116 | 35961 ft | 476 kts | 315° |
| 2026-05-04 14:56 | 45.73384 | 60.36760 | 35958 ft | 476 kts | 315° |
| 2026-05-04 14:57 | 45.78292 | 60.30390 | 35963 ft | 476 kts | 314° |
| 2026-05-04 14:57 | 45.83199 | 60.23988 | 35960 ft | 476 kts | 314° |
| 2026-05-04 14:58 | 45.88099 | 60.17599 | 35959 ft | 476 kts | 314° |
| 2026-05-04 14:58 | 45.92989 | 60.11196 | 35960 ft | 476 kts | 314° |
| 2026-05-04 14:59 | 45.97889 | 60.04767 | 35952 ft | 476 kts | 314° |
| 2026-05-04 15:00 | 46.05233 | 59.95128 | 35954 ft | 476 kts | 314° |
| 2026-05-04 15:00 | 46.10092 | 59.88732 | 35965 ft | 477 kts | 314° |
| 2026-05-04 15:01 | 46.17431 | 59.79050 | 35950 ft | 477 kts | 314° |
| 2026-05-04 15:01 | 46.22324 | 59.72567 | 35944 ft | 477 kts | 314° |
| 2026-05-04 15:02 | 46.27110 | 59.65933 | 35948 ft | 476 kts | 311° |
| 2026-05-04 15:02 | 46.31773 | 59.59115 | 35945 ft | 477 kts | 311° |
| 2026-05-04 15:03 | 46.36449 | 59.52299 | 35946 ft | 477 kts | 311° |
| 2026-05-04 15:03 | 46.41154 | 59.45498 | 35958 ft | 478 kts | 311° |
| 2026-05-04 15:04 | 46.45867 | 59.38695 | 35941 ft | 479 kts | 311° |
| 2026-05-04 15:04 | 46.50589 | 59.31865 | 35940 ft | 479 kts | 311° |
| 2026-05-04 15:05 | 46.55312 | 59.25011 | 35938 ft | 480 kts | 311° |
| 2026-05-04 15:05 | 46.60010 | 59.18174 | 35940 ft | 480 kts | 311° |
| 2026-05-04 15:06 | 46.64731 | 59.11285 | 35928 ft | 481 kts | 311° |
| 2026-05-04 15:07 | 46.71820 | 59.00908 | 35928 ft | 481 kts | 311° |
| 2026-05-04 15:07 | 46.76512 | 58.94017 | 35931 ft | 481 kts | 311° |
| 2026-05-04 15:08 | 46.81230 | 58.87070 | 35920 ft | 482 kts | 310° |
| 2026-05-04 15:08 | 46.85949 | 58.80104 | 35913 ft | 482 kts | 310° |
| 2026-05-04 15:09 | 46.90658 | 58.73134 | 35925 ft | 482 kts | 310° |
| 2026-05-04 15:09 | 46.95365 | 58.66147 | 35911 ft | 482 kts | 310° |
| 2026-05-04 15:10 | 47.02425 | 58.55636 | 35914 ft | 482 kts | 310° |
| 2026-05-04 15:11 | 47.09474 | 58.45102 | 35909 ft | 482 kts | 310° |
| 2026-05-04 15:11 | 47.14170 | 58.38061 | 35907 ft | 482 kts | 310° |
| 2026-05-04 15:12 | 47.18832 | 58.31057 | 35905 ft | 482 kts | 310° |
| 2026-05-04 15:12 | 47.23527 | 58.23992 | 35916 ft | 482 kts | 310° |
| 2026-05-04 15:13 | 47.28206 | 58.16935 | 35902 ft | 481 kts | 310° |
| 2026-05-04 15:13 | 47.32867 | 58.09853 | 35902 ft | 480 kts | 310° |
| 2026-05-04 15:14 | 47.37497 | 58.02793 | 35906 ft | 479 kts | 310° |
| 2026-05-04 15:14 | 47.42136 | 57.95723 | 35915 ft | 478 kts | 310° |
| 2026-05-04 15:15 | 47.46739 | 57.88706 | 35904 ft | 477 kts | 310° |
| 2026-05-04 15:15 | 47.51355 | 57.81652 | 35907 ft | 477 kts | 310° |
| 2026-05-04 15:16 | 47.58270 | 57.71059 | 35916 ft | 476 kts | 310° |
| 2026-05-04 15:17 | 47.65154 | 57.60448 | 35907 ft | 475 kts | 310° |
| 2026-05-04 15:17 | 47.71961 | 57.49821 | 35911 ft | 475 kts | 310° |
| 2026-05-04 15:18 | 47.76513 | 57.42720 | 35898 ft | 474 kts | 310° |
| 2026-05-04 15:19 | 47.83342 | 57.32050 | 35898 ft | 473 kts | 310° |
| 2026-05-04 15:19 | 47.90110 | 57.21436 | 35922 ft | 472 kts | 310° |
| 2026-05-04 15:20 | 47.94626 | 57.14327 | 35911 ft | 472 kts | 310° |
| 2026-05-04 15:20 | 47.99137 | 57.07209 | 35911 ft | 472 kts | 310° |
| 2026-05-04 15:21 | 48.03643 | 57.00080 | 35908 ft | 472 kts | 310° |
| 2026-05-04 15:22 | 48.10388 | 56.89372 | 35908 ft | 471 kts | 309° |
| 2026-05-04 15:22 | 48.17100 | 56.78675 | 35907 ft | 471 kts | 309° |
| 2026-05-04 15:23 | 48.21589 | 56.71500 | 35903 ft | 471 kts | 309° |
| 2026-05-04 15:23 | 48.26084 | 56.64300 | 35904 ft | 471 kts | 309° |
| 2026-05-04 15:24 | 48.34994 | 56.49973 | 35891 ft | 470 kts | 309° |
| 2026-05-04 15:25 | 48.39438 | 56.42759 | 35914 ft | 469 kts | 309° |
| 2026-05-04 15:26 | 48.46101 | 56.31938 | 35891 ft | 469 kts | 309° |
| 2026-05-04 15:26 | 48.52750 | 56.21126 | 35894 ft | 468 kts | 309° |
| 2026-05-04 15:27 | 48.59344 | 56.10312 | 35903 ft | 468 kts | 308° |
| 2026-05-04 15:28 | 48.65961 | 55.99469 | 35897 ft | 467 kts | 308° |
| 2026-05-04 15:29 | 48.72557 | 55.88592 | 35889 ft | 467 kts | 308° |
| 2026-05-04 15:30 | 48.81353 | 55.74100 | 36565 ft | 467 kts | 308° |
| 2026-05-04 15:30 | 48.87900 | 55.63216 | 37469 ft | 464 kts | 308° |
| 2026-05-04 15:31 | 48.92236 | 55.55927 | 37865 ft | 465 kts | 308° |
| 2026-05-04 15:31 | 48.94410 | 55.52276 | 37899 ft | 465 kts | 308° |
| 2026-05-04 15:32 | 49.05130 | 55.34266 | 37896 ft | 457 kts | 308° |
| 2026-05-04 15:34 | 49.15789 | 55.16257 | 37902 ft | 458 kts | 307° |
| 2026-05-04 15:34 | 49.22132 | 55.05393 | 37900 ft | 460 kts | 307° |
| 2026-05-04 15:35 | 49.28534 | 54.94407 | 37904 ft | 461 kts | 307° |
| 2026-05-04 15:36 | 49.34229 | 54.84627 | 37902 ft | 462 kts | 307° |
| 2026-05-04 15:36 | 49.38500 | 54.77269 | 37907 ft | 462 kts | 307° |
| 2026-05-04 15:37 | 49.42768 | 54.69894 | 37897 ft | 462 kts | 307° |
| 2026-05-04 15:37 | 49.47030 | 54.62508 | 37897 ft | 461 kts | 307° |
| 2026-05-04 15:38 | 49.51280 | 54.55122 | 37908 ft | 460 kts | 307° |
| 2026-05-04 15:38 | 49.55487 | 54.47791 | 37909 ft | 460 kts | 307° |
| 2026-05-04 15:39 | 49.59716 | 54.40400 | 37928 ft | 459 kts | 306° |
| 2026-05-04 15:40 | 49.66046 | 54.29302 | 37928 ft | 459 kts | 306° |
| 2026-05-04 15:40 | 49.70256 | 54.21894 | 37942 ft | 458 kts | 306° |
| 2026-05-04 15:41 | 49.74455 | 54.14488 | 37960 ft | 458 kts | 306° |
| 2026-05-04 15:41 | 49.78652 | 54.07067 | 37948 ft | 458 kts | 306° |
| 2026-05-04 15:42 | 49.82823 | 53.99677 | 37941 ft | 458 kts | 306° |
| 2026-05-04 15:42 | 49.87022 | 53.92226 | 37942 ft | 458 kts | 306° |
| 2026-05-04 15:43 | 49.91195 | 53.84758 | 37967 ft | 458 kts | 306° |
| 2026-05-04 15:43 | 49.95364 | 53.77235 | 37954 ft | 459 kts | 306° |
| 2026-05-04 15:44 | 49.99507 | 53.69762 | 37950 ft | 460 kts | 306° |
| 2026-05-04 15:44 | 50.03687 | 53.62224 | 37952 ft | 460 kts | 306° |
| 2026-05-04 15:45 | 50.07871 | 53.54665 | 37978 ft | 461 kts | 306° |
| 2026-05-04 15:45 | 50.12056 | 53.47081 | 37957 ft | 462 kts | 306° |
| 2026-05-04 15:46 | 50.16246 | 53.39465 | 37957 ft | 462 kts | 306° |
| 2026-05-04 15:46 | 50.20422 | 53.31851 | 37954 ft | 462 kts | 306° |
| 2026-05-04 15:47 | 50.24569 | 53.24268 | 37974 ft | 461 kts | 306° |
| 2026-05-04 15:47 | 50.28740 | 53.16619 | 37955 ft | 462 kts | 305° |
| 2026-05-04 15:48 | 50.32910 | 53.08950 | 37957 ft | 462 kts | 305° |
| 2026-05-04 15:48 | 50.39120 | 52.97488 | 37957 ft | 461 kts | 305° |
| 2026-05-04 15:49 | 50.43269 | 52.89802 | 37958 ft | 461 kts | 305° |
| 2026-05-04 15:49 | 50.47414 | 52.82101 | 37956 ft | 461 kts | 305° |
| 2026-05-04 15:50 | 50.51553 | 52.74390 | 37957 ft | 461 kts | 305° |
| 2026-05-04 15:50 | 50.55662 | 52.66715 | 37955 ft | 461 kts | 305° |
| 2026-05-04 15:51 | 50.59790 | 52.58985 | 37965 ft | 461 kts | 305° |
| 2026-05-04 15:51 | 50.63917 | 52.51247 | 37958 ft | 461 kts | 305° |
| 2026-05-04 15:52 | 50.68037 | 52.43489 | 37953 ft | 461 kts | 305° |
| 2026-05-04 15:52 | 50.72144 | 52.35731 | 37957 ft | 461 kts | 305° |
| 2026-05-04 15:53 | 50.76264 | 52.27965 | 37962 ft | 461 kts | 305° |
| 2026-05-04 15:53 | 50.80385 | 52.20202 | 37948 ft | 461 kts | 305° |
| 2026-05-04 15:54 | 50.84470 | 52.12492 | 37968 ft | 461 kts | 305° |
| 2026-05-04 15:54 | 50.88589 | 52.04697 | 37960 ft | 461 kts | 305° |
| 2026-05-04 15:55 | 50.92695 | 51.96899 | 37955 ft | 461 kts | 305° |
| 2026-05-04 15:55 | 50.96805 | 51.89072 | 37954 ft | 461 kts | 305° |
| 2026-05-04 15:56 | 51.00910 | 51.81235 | 37955 ft | 461 kts | 305° |
| 2026-05-04 15:56 | 51.04990 | 51.73429 | 37953 ft | 461 kts | 305° |
| 2026-05-04 15:57 | 51.09094 | 51.65566 | 37975 ft | 462 kts | 305° |
| 2026-05-04 15:57 | 51.12607 | 51.58841 | 37951 ft | 462 kts | 308° |
| 2026-05-04 15:58 | 51.17321 | 51.51821 | 37970 ft | 468 kts | 317° |
| 2026-05-04 15:58 | 51.22722 | 51.45907 | 37970 ft | 471 kts | 322° |
| 2026-05-04 15:59 | 51.28217 | 51.40176 | 37989 ft | 472 kts | 322° |
| 2026-05-04 15:59 | 51.33674 | 51.34421 | 37969 ft | 473 kts | 322° |
| 2026-05-04 16:00 | 51.39154 | 51.28596 | 37952 ft | 472 kts | 322° |
| 2026-05-04 16:00 | 51.44618 | 51.22752 | 37956 ft | 472 kts | 322° |
| 2026-05-04 16:01 | 51.50090 | 51.16930 | 37984 ft | 471 kts | 322° |
| 2026-05-04 16:01 | 51.55555 | 51.11155 | 37960 ft | 470 kts | 322° |
| 2026-05-04 16:02 | 51.61007 | 51.05379 | 37953 ft | 468 kts | 322° |
| 2026-05-04 16:03 | 51.69524 | 50.97922 | 37964 ft | 470 kts | 334° |
| 2026-05-04 16:03 | 51.75812 | 50.94855 | 37971 ft | 473 kts | 341° |
| 2026-05-04 16:04 | 51.82206 | 50.92238 | 37957 ft | 474 kts | 341° |
| 2026-05-04 16:04 | 51.91743 | 50.87924 | 37963 ft | 471 kts | 333° |
| 2026-05-04 16:05 | 51.97462 | 50.82919 | 37963 ft | 466 kts | 321° |
| 2026-05-04 16:06 | 52.04797 | 50.72766 | 37946 ft | 463 kts | 314° |
| 2026-05-04 16:07 | 52.14464 | 50.58868 | 37941 ft | 466 kts | 315° |
| 2026-05-04 16:08 | 52.24264 | 50.44923 | 37952 ft | 467 kts | 315° |
| 2026-05-04 16:09 | 52.36418 | 50.27506 | 37951 ft | 464 kts | 315° |
| 2026-05-04 16:10 | 52.46101 | 50.13551 | 37951 ft | 463 kts | 315° |
| 2026-05-04 16:11 | 52.55518 | 49.99225 | 37966 ft | 459 kts | 307° |
| 2026-05-04 16:12 | 52.60743 | 49.86192 | 37938 ft | 456 kts | 296° |
| 2026-05-04 16:12 | 52.65196 | 49.72349 | 37936 ft | 456 kts | 296° |
| 2026-05-04 16:13 | 52.71198 | 49.53885 | 37960 ft | 457 kts | 296° |
| 2026-05-04 16:14 | 52.77209 | 49.35374 | 37951 ft | 458 kts | 296° |
| 2026-05-04 16:16 | 52.84670 | 49.12191 | 37966 ft | 458 kts | 296° |
| 2026-05-04 16:17 | 52.92125 | 48.88846 | 37957 ft | 458 kts | 295° |
| 2026-05-04 16:18 | 52.98010 | 48.70147 | 37970 ft | 458 kts | 295° |
| 2026-05-04 16:19 | 53.05387 | 48.46598 | 37957 ft | 460 kts | 295° |
| 2026-05-04 16:20 | 53.13866 | 48.24203 | 37953 ft | 463 kts | 311° |
| 2026-05-04 16:22 | 53.25544 | 48.05558 | 37951 ft | 465 kts | 313° |
| 2026-05-04 16:23 | 53.39539 | 47.83056 | 37945 ft | 465 kts | 313° |
| 2026-05-04 16:25 | 53.52655 | 47.61736 | 37943 ft | 464 kts | 313° |
| 2026-05-04 16:26 | 53.68832 | 47.35210 | 37942 ft | 463 kts | 313° |
| 2026-05-04 16:28 | 53.80357 | 47.16140 | 37939 ft | 463 kts | 313° |
| 2026-05-04 16:29 | 53.96348 | 46.89317 | 37942 ft | 461 kts | 313° |
| 2026-05-04 16:31 | 54.07688 | 46.70117 | 37942 ft | 461 kts | 313° |
| 2026-05-04 16:32 | 54.21273 | 46.46947 | 37939 ft | 461 kts | 313° |
| 2026-05-04 16:33 | 54.30329 | 46.31398 | 37944 ft | 461 kts | 313° |
| 2026-05-04 16:34 | 54.37099 | 46.19722 | 37929 ft | 460 kts | 313° |
| 2026-05-04 16:35 | 54.50506 | 45.96303 | 37922 ft | 457 kts | 313° |
| 2026-05-04 16:36 | 54.57189 | 45.84557 | 37917 ft | 457 kts | 313° |
| 2026-05-04 16:37 | 54.63858 | 45.72790 | 37920 ft | 457 kts | 313° |
| 2026-05-04 16:38 | 54.72709 | 45.57091 | 37913 ft | 457 kts | 313° |
| 2026-05-04 16:39 | 54.85307 | 45.40275 | 37902 ft | 459 kts | 323° |
| 2026-05-04 16:40 | 54.95784 | 45.27624 | 37900 ft | 459 kts | 323° |
| 2026-05-04 16:41 | 55.08876 | 45.11619 | 37896 ft | 459 kts | 323° |
| 2026-05-04 16:43 | 55.21934 | 44.95548 | 37890 ft | 459 kts | 323° |
| 2026-05-04 16:43 | 55.29534 | 44.85515 | 37893 ft | 457 kts | 313° |
| 2026-05-04 16:44 | 55.36175 | 44.66681 | 37879 ft | 455 kts | 294° |
| 2026-05-04 16:45 | 55.38795 | 44.56529 | 37878 ft | 456 kts | 294° |
| 2026-05-04 16:46 | 55.45497 | 44.31158 | 37869 ft | 459 kts | 294° |
| 2026-05-04 16:47 | 55.50862 | 44.10805 | 37860 ft | 459 kts | 294° |
| 2026-05-04 16:48 | 55.56210 | 43.90355 | 37858 ft | 458 kts | 294° |
| 2026-05-04 16:49 | 55.61889 | 43.70240 | 37861 ft | 457 kts | 299° |
| 2026-05-04 16:50 | 55.68267 | 43.50797 | 37859 ft | 458 kts | 299° |
| 2026-05-04 16:51 | 55.73039 | 43.36073 | 37852 ft | 459 kts | 299° |
| 2026-05-04 16:52 | 55.78841 | 43.15939 | 37848 ft | 458 kts | 287° |
| 2026-05-04 16:53 | 55.80544 | 42.99262 | 37831 ft | 458 kts | 276° |
| 2026-05-04 16:54 | 55.81694 | 42.76705 | 37850 ft | 457 kts | 276° |
| 2026-05-04 16:55 | 55.83519 | 42.43038 | 37851 ft | 456 kts | 276° |
| 2026-05-04 16:56 | 55.84979 | 42.14905 | 37860 ft | 457 kts | 275° |
| 2026-05-04 16:57 | 55.85827 | 41.98078 | 37863 ft | 457 kts | 275° |
| 2026-05-04 16:58 | 55.86760 | 41.75479 | 37869 ft | 458 kts | 269° |
| 2026-05-04 17:00 | 55.85630 | 41.41456 | 37870 ft | 459 kts | 268° |
| 2026-05-04 17:01 | 55.84701 | 41.13127 | 37878 ft | 460 kts | 267° |
| 2026-05-04 17:02 | 55.83910 | 40.90403 | 37881 ft | 459 kts | 267° |
| 2026-05-04 17:02 | 55.83501 | 40.78982 | 36997 ft | 470 kts | 267° |
| 2026-05-04 17:03 | 55.83292 | 40.73185 | 36315 ft | 467 kts | 267° |
| 2026-05-04 17:03 | 55.83079 | 40.67422 | 35570 ft | 466 kts | 267° |
| 2026-05-04 17:03 | 55.82626 | 40.55890 | 33908 ft | 468 kts | 267° |
| 2026-05-04 17:04 | 55.82141 | 40.44310 | 31945 ft | 471 kts | 267° |
| 2026-05-04 17:04 | 55.81654 | 40.32740 | 30117 ft | 470 kts | 266° |
| 2026-05-04 17:05 | 55.81166 | 40.21262 | 28603 ft | 459 kts | 266° |
| 2026-05-04 17:05 | 55.80682 | 40.10098 | 27247 ft | 447 kts | 265° |
| 2026-05-04 17:06 | 55.80206 | 39.99274 | 26466 ft | 425 kts | 265° |
| 2026-05-04 17:06 | 55.79978 | 39.94115 | 26281 ft | 412 kts | 265° |
| 2026-05-04 17:07 | 55.79534 | 39.84342 | 25945 ft | 387 kts | 265° |
| 2026-05-04 17:07 | 55.79459 | 39.82747 | 25891 ft | 383 kts | 265° |
| 2026-05-04 17:07 | 55.79034 | 39.75062 | 25545 ft | 368 kts | 263° |
| 2026-05-04 17:07 | 55.78724 | 39.70564 | 25331 ft | 366 kts | 263° |
| 2026-05-04 17:08 | 55.78411 | 39.66052 | 25131 ft | 370 kts | 263° |
| 2026-05-04 17:08 | 55.77795 | 39.56879 | 24706 ft | 375 kts | 263° |
| 2026-05-04 17:08 | 55.77494 | 39.52288 | 24475 ft | 372 kts | 263° |
| 2026-05-04 17:09 | 55.77198 | 39.47805 | 24255 ft | 367 kts | 263° |
| 2026-05-04 17:09 | 55.76896 | 39.43322 | 24027 ft | 364 kts | 263° |
| 2026-05-04 17:09 | 55.76593 | 39.38872 | 23852 ft | 360 kts | 263° |
| 2026-05-04 17:10 | 55.76077 | 39.31577 | 23692 ft | 359 kts | 262° |
| 2026-05-04 17:10 | 55.75130 | 39.18221 | 23403 ft | 365 kts | 262° |
| 2026-05-04 17:11 | 55.74814 | 39.13757 | 23292 ft | 364 kts | 262° |
| 2026-05-04 17:11 | 55.74499 | 39.09292 | 23191 ft | 362 kts | 262° |
| 2026-05-04 17:11 | 55.73866 | 39.00439 | 22996 ft | 360 kts | 262° |
| 2026-05-04 17:12 | 55.73548 | 38.96102 | 22908 ft | 359 kts | 262° |
| 2026-05-04 17:12 | 55.73504 | 38.87276 | 22337 ft | 363 kts | 275° |
| 2026-05-04 17:13 | 55.74292 | 38.73982 | 21213 ft | 354 kts | 275° |
| 2026-05-04 17:14 | 55.74919 | 38.61234 | 20165 ft | 340 kts | 274° |
| 2026-05-04 17:14 | 55.75326 | 38.57172 | 19864 ft | 332 kts | 289° |
| 2026-05-04 17:14 | 55.77801 | 38.50072 | 19871 ft | 347 kts | 304° |
| 2026-05-04 17:15 | 55.79227 | 38.46597 | 19865 ft | 348 kts | 303° |
| 2026-05-04 17:15 | 55.81993 | 38.39696 | 19825 ft | 333 kts | 303° |
| 2026-05-04 17:16 | 55.84682 | 38.33215 | 19396 ft | 322 kts | 305° |
| 2026-05-04 17:16 | 55.88743 | 38.23927 | 18509 ft | 312 kts | 305° |
| 2026-05-04 17:17 | 55.90068 | 38.20883 | 18206 ft | 309 kts | 305° |
| 2026-05-04 17:17 | 55.93948 | 38.11931 | 17263 ft | 301 kts | 305° |
| 2026-05-04 17:18 | 55.95227 | 38.08973 | 16993 ft | 301 kts | 305° |
| 2026-05-04 17:18 | 55.97805 | 38.02986 | 16431 ft | 306 kts | 305° |
| 2026-05-04 17:19 | 56.00295 | 37.96904 | 15850 ft | 302 kts | 295° |
| 2026-05-04 17:19 | 56.01219 | 37.89809 | 15467 ft | 292 kts | 279° |
| 2026-05-04 17:20 | 56.01954 | 37.82558 | 15113 ft | 298 kts | 279° |
| 2026-05-04 17:20 | 56.03878 | 37.76290 | 14619 ft | 298 kts | 317° |
| 2026-05-04 17:20 | 56.05649 | 37.74339 | 14269 ft | 301 kts | 331° |
| 2026-05-04 17:21 | 56.09442 | 37.71267 | 13511 ft | 300 kts | 331° |
| 2026-05-04 17:21 | 56.12675 | 37.66999 | 12590 ft | 290 kts | 298° |
| 2026-05-04 17:22 | 56.13422 | 37.63601 | 11814 ft | 296 kts | 282° |
| 2026-05-04 17:22 | 56.14180 | 37.60271 | 11459 ft | 286 kts | 307° |
| 2026-05-04 17:23 | 56.19304 | 37.60057 | 11085 ft | 280 kts | 47° |
| 2026-05-04 17:23 | 56.20110 | 37.63200 | 10826 ft | 279 kts | 79° |
| 2026-05-04 17:23 | 56.19221 | 37.69726 | 10080 ft | 275 kts | 134° |
| 2026-05-04 17:24 | 56.17707 | 37.71699 | 9715 ft | 267 kts | 163° |
| 2026-05-04 17:24 | 56.12920 | 37.69595 | 8686 ft | 236 kts | 228° |
| 2026-05-04 17:25 | 56.11987 | 37.67228 | 8256 ft | 233 kts | 243° |
| 2026-05-04 17:25 | 56.10547 | 37.62074 | 7645 ft | 230 kts | 244° |
| 2026-05-04 17:26 | 56.09116 | 37.57000 | 7038 ft | 228 kts | 244° |
| 2026-05-04 17:26 | 56.09086 | 37.48979 | 5954 ft | 227 kts | 297° |
| 2026-05-04 17:27 | 56.11554 | 37.45501 | 5255 ft | 238 kts | 341° |
| 2026-05-04 17:27 | 56.14818 | 37.46412 | 4723 ft | 249 kts | 27° |
| 2026-05-04 17:28 | 56.16923 | 37.51259 | 4257 ft | 257 kts | 65° |
| 2026-05-04 17:29 | 56.19352 | 37.59892 | 3639 ft | 251 kts | 62° |
| 2026-05-04 17:29 | 56.19371 | 37.68344 | 3596 ft | 247 kts | 137° |
| 2026-05-04 17:30 | 56.14979 | 37.69159 | 3596 ft | 218 kts | 216° |
| 2026-05-04 17:31 | 56.12355 | 37.66776 | 3574 ft | 228 kts | 176° |
| 2026-05-04 17:31 | 56.09686 | 37.72956 | 3539 ft | 221 kts | 111° |
| 2026-05-04 17:32 | 56.07696 | 37.76231 | 3511 ft | 196 kts | 176° |
| 2026-05-04 17:33 | 56.03769 | 37.74750 | 3392 ft | 195 kts | 201° |
| 2026-05-04 17:33 | 56.02572 | 37.73773 | 3184 ft | 184 kts | 225° |
| 2026-05-04 17:34 | 56.01021 | 37.67469 | 2818 ft | 188 kts | 252° |
| 2026-05-04 17:34 | 56.00677 | 37.65267 | 2617 ft | 179 kts | 253° |
| 2026-05-04 17:35 | 55.99769 | 37.59139 | 2171 ft | 157 kts | 252° |
| 2026-05-04 17:35 | 55.99216 | 37.55433 | 1871 ft | 153 kts | 252° |
| 2026-05-04 17:35 | 55.98954 | 37.53660 | 1694 ft | 146 kts | 251° |
| 2026-05-04 17:36 | 55.98693 | 37.51926 | 1507 ft | 144 kts | 252° |
| 2026-05-04 17:36 | 55.98434 | 37.50202 | 1336 ft | 144 kts | 252° |
| 2026-05-04 17:36 | 55.98161 | 37.48440 | 1155 ft | 149 kts | 253° |
| 2026-05-04 17:36 | 55.97895 | 37.46616 | 985 ft | 154 kts | 254° |
| 2026-05-04 17:37 | 55.97627 | 37.44775 | 734 ft | 152 kts | 254° |
| 2026-05-04 17:37 | 55.97372 | 37.42999 | 651 ft | 138 kts | 251° |
| 2026-05-04 17:37 | 55.97146 | 37.41580 | 645 ft | 96 kts | 255° |
| 2026-05-04 17:37 | 55.97016 | 37.40653 | 644 ft | 67 kts | 256° |
| 2026-05-04 17:38 | 55.96947 | 37.40185 | 647 ft | 23 kts | 256° |
| 2026-05-04 17:38 | 55.97007 | 37.40035 | 649 ft | 14 kts | 344° |
| 2026-05-04 17:38 | 55.97114 | 37.39983 | 647 ft | 18 kts | 345° |
| 2026-05-04 17:38 | 55.97233 | 37.39927 | 645 ft | 10 kts | 345° |
| 2026-05-04 17:39 | 55.97363 | 37.40034 | 647 ft | 15 kts | 71° |
| 2026-05-04 17:39 | 55.97387 | 37.40226 | 647 ft | 17 kts | 76° |
| 2026-05-04 17:39 | 55.97421 | 37.40453 | 647 ft | 20 kts | 72° |
| 2026-05-04 17:40 | 55.97455 | 37.40646 | 645 ft | 16 kts | 75° |
| 2026-05-04 17:40 | 55.97486 | 37.40856 | 648 ft | 19 kts | 73° |
| 2026-05-04 17:40 | 55.97524 | 37.41089 | 647 ft | 16 kts | 70° |
| 2026-05-04 17:40 | 55.97597 | 37.41096 | 651 ft | 12 kts | 290° |
| 2026-05-04 17:41 | 55.97618 | 37.40956 | 648 ft | 12 kts | 330° |
| 2026-05-04 17:41 | 55.97711 | 37.40915 | 646 ft | 15 kts | 345° |
| 2026-05-04 17:41 | 55.97780 | 37.40954 | 650 ft | 10 kts | 62° |
| 2026-05-04 17:41 | 55.97791 | 37.41014 | 648 ft | 0 kts | 74° |
| 2026-05-04 17:42 | 55.97798 | 37.41060 | 645 ft | 0 kts | 76° |